Inhaltsbereich

METAR / TAF

Die METAR- und TAF-Liste ist aus technischen Gründen (Verfügbarkeit, Update-Zyklen) nicht für ein Meteo-Briefing gedacht. Benutzen Sie stattdessen skybriefing der Skyguide  oder das TAMSI (MeteoSchweiz-eigene Meteo Selfbriefing-Plattform für Firmen aus der Aviatik; Anfragen über das

Kontaktformular

METAR Schweiz

METAR     LFSB 210900Z VRB03KT 9999 FEW029 SCT070 00/M02 Q1033 NOSIG=
METAR     LSGC 210820Z AUTO 04011KT 9999 -SN BKN010 M05/M07 Q1028=
METAR     LSGC 210850Z 04012KT 9999 -SN SCT012 BKN020 M05/M07 Q1028=
METAR     LSGG 210820Z 03022G32KT 9999 FEW025 01/M06 Q1029 NOSIG=
METAR     LSGG 210850Z 03022G33KT 360V070 9999 FEW025 02/M05 Q1028
               NOSIG=
METAR     LSGS 210820Z 10003KT 060V140 9999 FEW060 M04/M07 Q1028=
METAR     LSGS 210850Z 08005KT 9999 FEW050 M04/M06 Q1028=
METAR     LSMA 210820Z 02009KT 350V050 6000 -SN SCT024 OVC062 01/M04
               Q1032 RMK WHT=
METAR     LSMA 210850Z 04009KT 350V070 9999 -SHRASN FEW033 BKN067
               01/M04 Q1032 RMK BLU=
METAR     LSMD 210820Z 00000KT 9999 SCT068 M03/M05 Q1032 RMK BLU+=
METAR     LSMD 210850Z VRB01KT 9999 FEW069 M01/M03 Q1032 RMK BLU+=
METAR     LSME 210820Z 02003KT 9999 BKN026 M01/M01 Q1032 RMK BLU=
METAR     LSME 210850Z VRB02KT 9999 BKN030 00/M02 Q1032 RMK BLU=
METAR     LSMM 210820Z VRB07G17KT 9999 -SHSN FEW020 SCT050 M01/M06
               Q1030 RMK BLU+=
METAR     LSMM 210850Z 12009KT 070V200 9999 -SN FEW020 SCT037 M01/M05
               Q1030 RMK BLU+=
METAR     LSMP 210820Z 06008KT 030V090 CAVOK M00/M04 Q1031 RMK BLU=
METAR     LSMP 210850Z 06010KT CAVOK 00/M04 Q1031 RMK BLU=
METAR     LSZA 210820Z 01012KT CAVOK 06/M13 Q1023 NOSIG=
METAR     LSZA 210850Z 01016KT CAVOK 07/M12 Q1023 NOSIG=
METAR     LSZB 210820Z VRB05KT CAVOK M00/M06 Q1030 NOSIG=
METAR     LSZB 210850Z 03008KT 310V080 CAVOK M00/M05 Q1030 NOSIG=
METAR     LSZC 210820Z VRB04KT 9999 BKN030 00/M03 Q1032=
METAR     LSZC 210850Z 34005KT 310V010 9999 SCT015 BKN055 00/M04
               Q1031=
METAR     LSZG 210820Z 11006KT 9999 SCT028 M01/M04 Q1031 NOSIG=
METAR     LSZG 210850Z 10005KT 9999 FEW028 00/M03 Q1031 NOSIG=
METAR     LSZH 210820Z 14003KT 9999 SCT060 M03/M04 Q1032 NOSIG=
METAR     LSZH 210850Z VRB01KT 9999 FEW060 M01/M03 Q1032 NOSIG=
METAR     LSZL 210820Z 13015G30KT 100V160 CAVOK 07/M13 Q1023 RMK BLU=
METAR     LSZL 210850Z 12015G27KT 080V150 CAVOK 07/M14 Q1023 RMK BLU=
METAR     LSZR 210820Z VRB02KT 9999 FEW030 BKN070 00/00 Q1032 NOSIG
               RMK D=
METAR     LSZR 210850Z 34005KT 9999 FEW030 BKN070 01/M01 Q1032 NOSIG
               RMK D=
METAR     LSZS 210820Z VRB01KT CAVOK M14/M17 Q1022 RMK D TL170=
METAR     LSZS 210850Z 05011KT CAVOK M11/M17 Q1022 RMK E TL170=
Aktualisiert am Freitag, 21. Januar 2022, 10:10 Uhr

TAF Schweiz

TAF RRA LFSB 210500Z 2106/2206 34006KT 9999 SCT050 PROB40 TEMPO
             2106/2109 3000 BR OVC003 TEMPO 2200/2206 3000 BR=
TAF     LSGC 210525Z 2106/2115 05010KT 9999 FEW010 SCT035 PROB30
             TEMPO 2106/2110 4500 SHSN SCT008 BKN010 PROB30 TEMPO
             2109/2115 05015G25KT=
TAF     LSGG 210525Z 2106/2212 05015G25KT 9999 FEW050 TX03/2113Z
             TN00/2106Z TN00/2206Z PROB40 TEMPO 2110/2116 03025G35KT=
TAF     LSGS 210525Z 2106/2115 VRB02KT 9999 FEW070 BECMG 2110/2112
             25010KT=
TAF     LSMA 201625Z 2017/2123 VRB02KT 9999 FEW030 BKN050 TEMPO
             2017/2021 3000 -SHSNRA BKN012 PROB40 TEMPO 2103/2111
             3000 -SN BKN010=
TAF     LSMD 201625Z 2017/2123 27005KT 9999 FEW020 BKN060 PROB30
             TEMPO 2017/2019 4000 -SHSNRA BKN012 PROB30 TEMPO
             2103/2106 3000 -SN BKN010=
TAF     LSME 201625Z 2017/2123 VRB02KT 9999 BKN050 PROB40 TEMPO
             2017/2020 3000 -SHSNRA BKN010 PROB30 TEMPO 2103/2107
             3000 -SN BKN010=
TAF     LSMM 201625Z 2017/2123 VRB02KT 9999 FEW020 SCT030 BKN040
             TEMPO 2017/2024 3000 -SN BKN010 PROB30 TEMPO 2017/2112
             2000 BKN005 PROB40 TEMPO 2100/2112 3000 -SN BKN010 BECMG
             2109/2111 07010KT=
TAF     LSMP 210525Z 2106/2212 03010KT 9999 SCT060 PROB40 TEMPO
             2112/2116 04015G25KT BECMG 2206/2209 BKN030=
TAF     LSZA 210525Z 2106/2115 02012G22KT CAVOK TEMPO 2106/2110
             02017G30KT=
TAF     LSZB 210525Z 2106/2115 31004KT 9999 FEW065=
TAF     LSZC 210525Z 2106/2115 VRB02KT 9999 FEW035 SCT040 BKN050
             PROB40 TEMPO 2106/2110 3000 -SN BKN010=
TAF     LSZG 210525Z 2106/2115 08010KT 9999 FEW035 BKN060=
TAF     LSZH 210525Z 2106/2212 34002KT 9999 FEW030 BKN060 TX02/2114Z
             TNM03/2106Z TNM05/2203Z PROB30 TEMPO 2106/2110 -SN
             BKN010 BECMG 2118/2121 CAVOK BECMG 2200/2203 9999 BKN030
             PROB40 TEMPO 2203/2212 -SN=
TAF AAA LSZH 210612Z 2106/2212 34002KT 9999 FEW050 TX02/2114Z
             TNM04/2106Z TNM05/2203Z TEMPO 2106/2112 CAVOK BECMG
             2118/2121 CAVOK BECMG 2200/2203 9999 BKN030 PROB40 TEMPO
             2203/2212 -SN=
TAF     LSZL 210525Z 2106/2115 11008KT CAVOK TEMPO 2106/2115
             15015G25KT=
TAF     LSZR 210525Z 2106/2115 29006KT 9999 FEW035 BKN060 TEMPO
             2106/2110 -SN PROB30 TEMPO 2106/2110 2000 SN BKN010=
TAF     LSZS 210525Z 2106/2115 05010KT 9999 SCT035 TXM04/2113Z PROB40
             TEMPO 2106/2112 -SN BKN030=
Aktualisiert am Freitag, 21. Januar 2022, 09:03 Uhr